Time;durP1;ratioP1;P1;durP2;ratioP2;P2;SDS_P1;SDS_P2;PMS_P1;PMS_P2;Temp;Humidity;BMP_temperature;BMP_pressure;BME280_temperature;BME280_humidity;BME280_pressure;Samples;Min_cycle;Max_cycle;Signal;HPM_P1;HPM_P2
2022/06/30 00:00:15;;;;;;;14.38;8.25;;;;;;;21.71;66.47;101112.41;5020813;28;20420;-60
2022/06/30 00:02:41;;;;;;;11.82;8.35;;;;;;;21.71;66.27;101109.78;5020207;28;20057;-61
2022/06/30 00:05:07;;;;;;;13.20;7.93;;;;;;;21.68;66.04;101104.59;5023732;28;20033;-58
2022/06/30 00:07:33;;;;;;;14.13;7.97;;;;;;;21.62;66.36;101096.84;5015411;28;20041;-60
2022/06/30 00:09:58;;;;;;;10.30;7.28;;;;;;;21.66;65.92;101103.78;5022821;28;20034;-60
2022/06/30 00:12:24;;;;;;;11.25;7.88;;;;;;;21.61;66.47;101095.97;5021124;28;20041;-60
2022/06/30 00:14:49;;;;;;;12.25;7.93;;;;;;;21.62;66.21;101094.22;5022343;28;20021;-60
2022/06/30 00:17:15;;;;;;;11.95;7.97;;;;;;;21.59;65.94;101095.13;5022323;28;20048;-59
2022/06/30 00:19:41;;;;;;;10.15;8.52;;;;;;;21.62;66.05;101092.47;5017494;28;20034;-60
2022/06/30 00:22:07;;;;;;;16.15;8.27;;;;;;;21.54;65.64;101085.63;5020835;28;20429;-58
2022/06/30 00:24:33;;;;;;;13.68;8.35;;;;;;;21.49;65.90;101098.75;5020543;28;20107;-60
2022/06/30 00:26:58;;;;;;;11.65;8.07;;;;;;;21.53;66.06;101089.09;5022738;28;20061;-61
2022/06/30 00:29:24;;;;;;;11.00;8.23;;;;;;;21.56;65.24;101078.63;5014436;28;20528;-57
2022/06/30 00:31:49;;;;;;;13.63;8.52;;;;;;;21.46;66.05;101088.31;5024643;28;20036;-60
2022/06/30 00:34:15;;;;;;;10.82;8.10;;;;;;;21.48;65.82;101072.59;5019370;28;20041;-59
2022/06/30 00:36:40;;;;;;;9.52;8.57;;;;;;;21.46;65.25;101071.75;5022008;28;20402;-59
2022/06/30 00:39:06;;;;;;;9.45;8.30;;;;;;;21.39;65.12;101071.84;5018853;28;20029;-60
2022/06/30 00:41:31;;;;;;;11.43;8.38;;;;;;;21.42;65.45;101074.44;5021586;28;20037;-55
2022/06/30 00:43:56;;;;;;;9.82;8.38;;;;;;;21.44;65.27;101069.19;5020280;28;20025;-60
2022/06/30 00:46:23;;;;;;;12.60;8.30;;;;;;;21.35;65.44;101072.75;5017925;28;20398;-60
2022/06/30 00:48:48;;;;;;;12.10;8.60;;;;;;;21.39;65.21;101078.84;5021238;28;20036;-61
2022/06/30 00:51:14;;;;;;;10.45;8.80;;;;;;;21.33;64.83;101077.16;5017704;28;20033;-60
2022/06/30 00:53:41;;;;;;;11.75;8.82;;;;;;;21.38;65.11;101077.97;5019887;28;20408;-59
2022/06/30 00:56:08;;;;;;;13.30;8.73;;;;;;;21.36;65.45;101074.50;5013983;28;20040;-60
2022/06/30 00:58:41;;;;;;;13.07;8.73;;;;;;;21.33;65.16;101071.94;5017293;28;20037;-60
2022/06/30 01:01:08;;;;;;;10.18;8.98;;;;;;;21.25;65.58;101078.13;5020610;28;20520;-57
2022/06/30 01:03:35;;;;;;;11.32;9.10;;;;;;;21.25;66.36;101080.72;5019903;28;20030;-60
2022/06/30 01:06:05;;;;;;;13.80;8.70;;;;;;;21.21;66.08;101079.03;5017894;28;20037;-59
2022/06/30 01:08:32;;;;;;;11.52;8.90;;;;;;;21.21;65.84;101082.50;5019463;28;20033;-58
2022/06/30 01:13:42;;;;;;;12.80;9.30;;;;;;;21.23;66.95;101078.13;5016728;28;20048;-59
2022/06/30 01:16:08;;;;;;;13.77;9.73;;;;;;;21.18;66.44;101085.19;5024757;28;20025;-59
2022/06/30 01:18:34;;;;;;;12.27;9.07;;;;;;;21.14;66.44;101083.47;5016935;28;20481;-60
2022/06/30 01:21:00;;;;;;;11.38;9.77;;;;;;;21.11;66.99;101080.88;5017777;28;20573;-58
2022/06/30 01:23:25;;;;;;;10.50;9.48;;;;;;;21.15;66.67;101083.44;5024950;28;20685;-61
2022/06/30 01:25:51;;;;;;;18.27;10.30;;;;;;;21.13;66.71;101081.75;5023659;28;20037;-60
2022/06/30 01:28:17;;;;;;;11.38;10.18;;;;;;;21.09;66.88;101083.53;5025003;28;20055;-57
2022/06/30 01:30:43;;;;;;;12.60;10.35;;;;;;;21.07;66.40;101084.44;5028932;28;20466;-61
2022/06/30 01:33:08;;;;;;;13.90;10.40;;;;;;;21.04;66.42;101079.22;5025136;28;20042;-60
2022/06/30 01:35:34;;;;;;;11.52;10.32;;;;;;;21.04;66.73;101079.22;5028491;28;20041;-61
2022/06/30 01:38:00;;;;;;;12.65;10.63;;;;;;;21.04;66.32;101080.09;5025782;28;20150;-59
2022/06/30 01:40:28;;;;;;;14.68;11.00;;;;;;;21.04;66.91;101090.53;5027276;28;20150;-58
2022/06/30 01:42:54;;;;;;;16.17;11.35;;;;;;;21.02;66.75;101094.06;5028655;28;20025;-60
2022/06/30 01:45:21;;;;;;;13.13;10.98;;;;;;;20.93;66.45;101092.44;5027425;28;20482;-60
2022/06/30 01:47:47;;;;;;;11.77;10.63;;;;;;;20.91;66.76;101085.47;5027582;28;20041;-60
2022/06/30 01:50:16;;;;;;;12.63;10.77;;;;;;;20.96;66.51;101089.78;5026027;28;20479;-61
2022/06/30 01:52:42;;;;;;;;;;;;;;;21.11;65.65;101092.22;5027957;28;20021;-61
2022/06/30 01:55:08;;;;;;;15.02;11.27;;;;;;;20.85;67.20;101087.28;5029120;28;19974;-60
2022/06/30 01:57:35;;;;;;;14.93;11.13;;;;;;;20.80;67.72;101088.19;5026356;28;20053;-61
2022/06/30 02:00:01;;;;;;;12.55;11.25;;;;;;;20.73;68.93;101091.75;5025996;28;20033;-60
2022/06/30 02:02:27;;;;;;;12.60;10.65;;;;;;;20.80;68.45;101088.19;5028378;28;20482;-57
2022/06/30 02:04:53;;;;;;;13.60;11.35;;;;;;;20.71;68.34;101090.94;5026936;28;20037;-60
2022/06/30 02:07:19;;;;;;;13.50;11.30;;;;;;;20.67;68.30;101099.66;5029443;28;20037;-61
2022/06/30 02:09:45;;;;;;;13.93;11.02;;;;;;;20.59;68.32;101097.13;5022480;28;20049;-60
2022/06/30 02:14:57;;;;;;;13.23;11.18;;;;;;;20.47;69.32;101102.47;5024897;28;20072;-60
2022/06/30 02:17:22;;;;;;;15.40;11.80;;;;;;;20.30;69.74;101098.22;5023156;28;20030;-60
2022/06/30 02:19:48;;;;;;;14.27;11.85;;;;;;;20.46;69.32;101103.34;5017292;28;20037;-59
2022/06/30 02:22:13;;;;;;;15.23;11.77;;;;;;;20.47;68.91;101100.72;5026441;28;20037;-60
2022/06/30 02:24:39;;;;;;;12.77;11.48;;;;;;;20.45;69.44;101094.66;5024614;28;20036;-60
2022/06/30 02:27:05;;;;;;;15.05;12.32;;;;;;;20.40;69.99;101090.31;5027025;28;20041;-60
2022/06/30 02:29:30;;;;;;;13.68;12.25;;;;;;;20.31;70.14;101089.50;5029667;28;20466;-59
2022/06/30 02:31:55;;;;;;;15.45;12.18;;;;;;;20.32;69.30;101095.59;5023014;28;20032;-60
2022/06/30 02:34:21;;;;;;;15.20;12.75;;;;;;;20.28;69.64;101093.91;5032638;28;20494;-59
2022/06/30 02:36:46;;;;;;;13.60;12.20;;;;;;;20.24;69.87;101103.50;5025503;28;20033;-60
2022/06/30 02:39:11;;;;;;;13.95;12.48;;;;;;;20.26;70.11;101099.13;5028866;28;20112;-60
2022/06/30 02:41:37;;;;;;;14.93;12.18;;;;;;;20.31;70.06;101099.94;5024641;28;20612;-60
2022/06/30 02:44:03;;;;;;;15.45;12.82;;;;;;;20.21;70.70;101100.91;5032467;28;20029;-60
2022/06/30 02:46:28;;;;;;;16.88;12.98;;;;;;;20.25;70.84;101101.75;5028833;28;20030;-60
2022/06/30 02:48:54;;;;;;;16.33;12.88;;;;;;;20.18;70.67;101095.69;5025375;28;20512;-60
2022/06/30 02:51:19;;;;;;;20.33;13.10;;;;;;;20.17;70.25;101098.34;5025024;28;20021;-60
2022/06/30 02:53:44;;;;;;;17.45;13.02;;;;;;;20.18;70.46;101105.28;5023769;28;20025;-60
2022/06/30 02:56:11;;;;;;;16.75;13.07;;;;;;;20.07;71.41;101100.13;5028459;28;20083;-59
2022/06/30 02:58:37;;;;;;;16.90;13.25;;;;;;;20.03;71.03;101095.84;5030059;28;20543;-61
2022/06/30 03:01:02;;;;;;;19.20;13.23;;;;;;;20.02;70.86;101104.50;5021820;28;20029;-60
2022/06/30 03:03:28;;;;;;;19.23;13.32;;;;;;;19.93;71.34;101101.97;5027286;28;20121;-60
2022/06/30 03:05:53;;;;;;;16.42;14.73;;;;;;;19.96;71.02;101096.72;5030993;28;20028;-60
2022/06/30 03:08:18;;;;;;;16.88;13.25;;;;;;;19.92;71.57;101100.25;5029781;28;20490;-58
2022/06/30 03:10:44;;;;;;;16.77;14.48;;;;;;;19.94;71.79;101095.88;5029894;28;20049;-60
2022/06/30 03:13:09;;;;;;;16.10;14.20;;;;;;;19.94;70.96;101094.13;5026880;28;20048;-60
2022/06/30 03:15:35;;;;;;;17.10;14.80;;;;;;;19.96;71.24;101104.56;5026165;28;20048;-56
2022/06/30 03:18:00;;;;;;;15.15;13.52;;;;;;;19.93;71.34;101104.59;5020623;28;20124;-59
2022/06/30 03:20:25;;;;;;;17.30;13.75;;;;;;;19.79;71.79;101095.13;5027859;28;20029;-60
2022/06/30 03:22:51;;;;;;;17.50;14.00;;;;;;;19.82;71.85;101091.59;5026616;28;20063;-61
2022/06/30 03:25:16;;;;;;;17.00;14.57;;;;;;;19.78;71.82;101085.56;5026267;28;20041;-60
2022/06/30 03:27:41;;;;;;;15.93;14.30;;;;;;;19.75;72.18;101085.56;5025333;28;20505;-60
2022/06/30 03:30:07;;;;;;;16.17;14.23;;;;;;;19.70;72.88;101083.84;5030243;28;20500;-58
2022/06/30 03:32:33;;;;;;;16.20;14.50;;;;;;;19.68;72.06;101089.09;5026821;28;20387;-60
2022/06/30 03:34:58;;;;;;;18.50;15.23;;;;;;;19.71;72.71;101082.97;5025599;28;20041;-59
2022/06/30 03:37:23;;;;;;;16.35;13.88;;;;;;;19.67;72.90;101079.53;5027392;28;20040;-60
2022/06/30 03:39:49;;;;;;;18.38;14.85;;;;;;;19.68;72.52;101083.88;5024800;28;20433;-60
2022/06/30 03:42:14;;;;;;;19.40;14.90;;;;;;;19.65;72.62;101089.09;5027029;28;20035;-60
2022/06/30 03:44:40;;;;;;;17.65;14.80;;;;;;;19.67;72.47;101079.53;5026043;28;20030;-60
2022/06/30 03:47:05;;;;;;;16.67;14.93;;;;;;;19.60;72.51;101079.59;5024863;28;20029;-60
2022/06/30 03:49:31;;;;;;;17.77;14.95;;;;;;;19.61;73.08;101087.41;5026382;28;20083;-60
2022/06/30 03:51:56;;;;;;;18.30;15.27;;;;;;;19.51;73.52;101080.44;5026995;28;20076;-60
2022/06/30 03:54:22;;;;;;;16.70;14.20;;;;;;;19.52;73.21;101076.97;5026150;28;20083;-60
2022/06/30 03:56:48;;;;;;;22.80;16.17;;;;;;;19.49;73.27;101077.00;5023541;28;20039;-60
2022/06/30 03:59:14;;;;;;;16.63;14.85;;;;;;;19.47;72.84;101069.16;5023808;28;20029;-60
2022/06/30 04:01:40;;;;;;;20.70;16.17;;;;;;;19.42;73.53;101083.13;5026061;28;20033;-60
2022/06/30 04:04:05;;;;;;;18.25;15.93;;;;;;;19.44;73.36;101058.75;5020308;28;20087;-59
2022/06/30 04:06:30;;;;;;;17.90;15.48;;;;;;;19.48;73.71;101064.84;5027234;28;20037;-60
2022/06/30 04:08:56;;;;;;;21.95;16.05;;;;;;;19.48;73.68;101051.81;5022320;28;20500;-59
2022/06/30 04:11:21;;;;;;;21.27;15.95;;;;;;;19.48;73.79;101063.09;5027005;28;20114;-60
2022/06/30 04:13:46;;;;;;;17.85;15.90;;;;;;;19.44;73.90;101068.31;5024644;28;20061;-59
2022/06/30 04:16:12;;;;;;;19.02;16.42;;;;;;;19.41;73.95;101063.09;5024192;28;20053;-60
2022/06/30 04:18:37;;;;;;;18.88;15.90;;;;;;;19.45;73.57;101065.69;5025443;28;20032;-60
2022/06/30 04:21:03;;;;;;;18.35;15.55;;;;;;;19.42;74.05;101067.47;5024575;28;20048;-60
2022/06/30 04:23:28;;;;;;;20.00;15.35;;;;;;;19.38;74.09;101077.03;5027601;28;20034;-58
2022/06/30 04:25:53;;;;;;;17.75;16.00;;;;;;;19.38;74.08;101070.97;5019453;28;20113;-57
2022/06/30 04:28:19;;;;;;;19.20;16.00;;;;;;;19.39;73.91;101064.88;5024092;28;20041;-60
2022/06/30 04:33:28;;;;;;;21.00;15.90;;;;;;;19.39;74.31;101062.25;5022536;28;20064;-60
2022/06/30 04:35:53;;;;;;;19.27;16.15;;;;;;;19.44;74.69;101076.16;5024950;28;20025;-60
2022/06/30 04:38:19;;;;;;;22.67;16.90;;;;;;;19.44;74.48;101079.63;5021274;28;20078;-59
2022/06/30 04:43:28;;;;;;;18.05;15.95;;;;;;;19.48;74.79;101097.00;5026252;28;20053;-60
2022/06/30 04:45:54;;;;;;;19.60;16.05;;;;;;;19.50;74.73;101092.63;5023535;28;20033;-60
2022/06/30 04:48:19;;;;;;;17.85;15.95;;;;;;;19.51;74.74;101086.53;5022195;28;20045;-60
2022/06/30 04:50:45;;;;;;;18.70;16.70;;;;;;;19.49;74.59;101134.38;5021146;28;20053;-57
2022/06/30 04:53:10;;;;;;;17.83;15.98;;;;;;;19.53;74.60;101089.13;5019000;28;20037;-59
2022/06/30 04:55:36;;;;;;;18.60;16.60;;;;;;;19.55;74.52;101090.00;5021993;28;20032;-56
2022/06/30 04:58:02;;;;;;;19.98;15.57;;;;;;;19.59;74.95;101112.59;5015479;28;20060;-60
2022/06/30 05:00:28;;;;;;;17.70;15.25;;;;;;;19.61;75.05;101129.13;5021274;28;20067;-60
2022/06/30 05:02:53;;;;;;;18.40;14.85;;;;;;;19.60;75.09;101108.28;5023327;28;20029;-57
2022/06/30 05:05:19;;;;;;;17.55;14.45;;;;;;;19.65;75.48;101136.06;5020565;28;20032;-60
2022/06/30 05:07:44;;;;;;;15.43;13.57;;;;;;;19.70;75.63;101110.81;5020154;28;20124;-58
2022/06/30 05:10:10;;;;;;;15.15;13.60;;;;;;;19.64;75.58;101113.44;5029319;28;20132;-60
2022/06/30 05:12:35;;;;;;;17.30;14.10;;;;;;;19.67;75.61;101123.88;5024832;28;20037;-60
2022/06/30 05:15:01;;;;;;;18.50;14.85;;;;;;;19.76;75.70;101118.59;5025301;28;20747;-60
2022/06/30 05:17:26;;;;;;;16.27;14.55;;;;;;;19.76;75.90;101112.53;5014644;28;20061;-60
2022/06/30 05:19:52;;;;;;;16.88;15.15;;;;;;;19.78;75.90;101121.22;5024903;28;20072;-58
2022/06/30 05:22:18;;;;;;;17.90;15.38;;;;;;;19.85;76.70;101114.22;5022657;28;20044;-59
2022/06/30 05:27:27;;;;;;;17.52;15.10;;;;;;;19.94;75.41;101111.53;5021537;28;20099;-60
2022/06/30 05:29:52;;;;;;;17.10;15.30;;;;;;;20.00;75.07;101120.19;5025074;28;20494;-60
2022/06/30 05:32:18;;;;;;;18.63;14.93;;;;;;;20.08;75.68;101114.91;5024747;28;20038;-58
2022/06/30 05:34:43;;;;;;;17.45;15.52;;;;;;;20.06;75.24;101121.91;5025339;28;20086;-59
2022/06/30 05:37:08;;;;;;;22.55;16.20;;;;;;;20.17;75.20;101119.22;5028442;28;20040;-60
2022/06/30 05:39:34;;;;;;;19.38;15.55;;;;;;;20.17;75.38;101122.69;5022764;28;20402;-60
2022/06/30 05:42:01;;;;;;;17.17;15.15;;;;;;;20.29;75.13;101117.38;5021627;28;20763;-59
2022/06/30 05:44:28;;;;;;;19.58;15.43;;;;;;;20.31;75.26;101122.59;5022555;28;20048;-59
2022/06/30 05:46:54;;;;;;;18.60;15.82;;;;;;;20.41;74.94;101112.94;5024774;28;20057;-60
2022/06/30 05:49:21;;;;;;;20.30;17.27;;;;;;;20.42;74.69;101119.88;5023774;28;20036;-59
2022/06/30 05:51:46;;;;;;;19.35;16.75;;;;;;;20.50;74.72;101120.72;5025140;28;20589;-58
2022/06/30 05:54:12;;;;;;;22.65;17.70;;;;;;;20.55;74.49;101116.31;5027969;28;20063;-60
2022/06/30 05:56:37;;;;;;;21.80;17.27;;;;;;;20.58;73.94;101109.34;5025545;28;20033;-60
2022/06/30 05:59:02;;;;;;;24.00;17.80;;;;;;;20.59;73.69;101118.91;5020591;28;20125;-59
2022/06/30 06:01:28;;;;;;;20.80;17.95;;;;;;;20.58;74.12;101118.91;5016951;28;20090;-59
2022/06/30 06:03:53;;;;;;;20.13;17.02;;;;;;;20.68;73.69;101117.06;5018947;28;20607;-59
2022/06/30 06:06:19;;;;;;;19.42;16.70;;;;;;;20.69;73.41;101114.47;5025458;28;20037;-59
2022/06/30 06:08:44;;;;;;;21.00;16.40;;;;;;;20.78;73.28;101121.34;5023377;28;20108;-55
2022/06/30 06:11:10;;;;;;;23.30;16.92;;;;;;;20.85;73.14;101112.53;5024042;28;20076;-58
2022/06/30 06:13:35;;;;;;;24.05;17.38;;;;;;;20.93;72.79;101115.06;5027131;28;20049;-59
2022/06/30 06:16:00;;;;;;;20.90;15.70;;;;;;;21.00;72.72;101120.25;5024325;28;20071;-59
2022/06/30 06:18:26;;;;;;;20.60;16.38;;;;;;;21.05;72.65;101122.78;5028355;28;20159;-54
2022/06/30 06:20:51;;;;;;;19.95;15.30;;;;;;;21.16;72.48;101129.63;5025997;28;20029;-59
2022/06/30 06:23:16;;;;;;;17.42;14.48;;;;;;;21.29;72.30;101132.13;5025773;28;20041;-59
2022/06/30 06:25:42;;;;;;;17.83;14.15;;;;;;;21.34;70.64;101132.94;5025799;28;20030;-59
2022/06/30 06:30:51;;;;;;;15.88;10.82;;;;;;;21.48;68.98;101144.13;5024367;28;20064;-59
2022/06/30 06:33:16;;;;;;;15.65;11.45;;;;;;;21.50;68.51;101142.34;5030250;28;20443;-58
2022/06/30 06:35:41;;;;;;;17.30;10.68;;;;;;;21.59;68.79;101141.34;5021472;28;20125;-54
2022/06/30 06:38:07;;;;;;;16.73;10.95;;;;;;;21.65;68.16;101138.66;5021748;28;20347;-58
2022/06/30 06:40:32;;;;;;;17.33;10.15;;;;;;;21.67;68.30;101144.75;5022580;28;20066;-59
2022/06/30 06:42:57;;;;;;;12.98;10.07;;;;;;;21.72;68.12;101148.19;5024740;28;20038;-59
2022/06/30 06:45:22;;;;;;;18.58;10.65;;;;;;;21.78;68.09;101136.72;5026854;28;20032;-58
2022/06/30 06:47:48;;;;;;;15.38;10.02;;;;;;;21.87;68.02;101147.09;5024168;28;20036;-55
2022/06/30 06:50:14;;;;;;;11.32;9.32;;;;;;;21.97;67.61;101153.94;5027322;28;20033;-59
2022/06/30 06:52:39;;;;;;;14.85;8.98;;;;;;;22.00;67.38;101151.25;5022895;28;20478;-57
2022/06/30 06:55:05;;;;;;;14.05;9.43;;;;;;;22.11;67.17;101156.38;5030059;28;20113;-52
2022/06/30 06:57:36;;;;;;;14.05;9.18;;;;;;;22.16;67.28;101154.56;5028380;28;20064;-59
2022/06/30 07:00:04;;;;;;;14.50;8.50;;;;;;;22.34;66.87;101166.50;5024284;28;20710;-59
2022/06/30 07:02:29;;;;;;;12.35;7.90;;;;;;;22.36;67.58;101156.88;5026489;28;20041;-56
2022/06/30 07:04:55;;;;;;;13.48;8.50;;;;;;;22.41;66.91;101162.91;5032336;28;20087;-59
2022/06/30 07:07:20;;;;;;;15.73;7.65;;;;;;;22.46;66.85;101164.56;5022342;28;20112;-60
2022/06/30 07:09:45;;;;;;;10.98;7.40;;;;;;;22.54;66.19;101171.44;5024190;28;20549;-59
2022/06/30 07:12:11;;;;;;;13.25;6.85;;;;;;;22.62;65.62;101173.03;5022756;28;20025;-57
2022/06/30 07:14:36;;;;;;;14.80;7.28;;;;;;;22.68;65.29;101175.53;5027654;28;20029;-58
2022/06/30 07:17:01;;;;;;;13.77;7.07;;;;;;;22.74;65.16;101174.56;5024923;28;20116;-59
2022/06/30 07:19:27;;;;;;;15.85;6.70;;;;;;;22.76;65.22;101180.66;5021209;28;20482;-59
2022/06/30 07:21:52;;;;;;;15.85;6.43;;;;;;;22.81;64.77;101178.81;5025266;28;20030;-59
2022/06/30 07:24:17;;;;;;;16.88;6.68;;;;;;;22.88;64.54;101185.72;5021101;28;20030;-58
2022/06/30 07:26:43;;;;;;;12.57;6.50;;;;;;;22.98;64.78;101195.16;5027907;28;20037;-58
2022/06/30 07:29:08;;;;;;;13.95;6.40;;;;;;;23.04;65.14;101188.94;5026172;28;20107;-59
2022/06/30 07:31:34;;;;;;;18.40;6.50;;;;;;;23.09;64.54;101189.72;5022945;28;20494;-59
2022/06/30 07:33:59;;;;;;;10.32;5.22;;;;;;;23.22;64.51;101204.31;5029859;28;20108;-59
2022/06/30 07:36:24;;;;;;;12.50;5.43;;;;;;;23.21;63.93;101196.50;5022757;28;20129;-59
2022/06/30 07:38:50;;;;;;;11.93;5.53;;;;;;;23.23;64.27;101197.31;5027540;28;20030;-59
2022/06/30 07:41:16;;;;;;;13.90;5.40;;;;;;;23.29;63.48;101197.19;5019634;28;20040;-57
2022/06/30 07:43:41;;;;;;;9.20;4.65;;;;;;;23.35;63.00;101194.44;5025985;28;20048;-57
2022/06/30 07:46:08;;;;;;;12.23;5.03;;;;;;;23.42;62.40;101201.34;5025622;28;20478;-58
2022/06/30 07:48:34;;;;;;;14.00;5.05;;;;;;;23.51;62.98;101206.38;5029627;28;20481;-59
2022/06/30 07:50:59;;;;;;;11.25;5.03;;;;;;;23.54;61.00;101211.59;5024698;28;20033;-59
2022/06/30 07:53:24;;;;;;;9.23;4.35;;;;;;;23.61;60.99;101208.84;5023694;28;20087;-58
2022/06/30 07:55:50;;;;;;;10.05;4.20;;;;;;;23.74;59.91;101212.97;5024180;28;20025;-59
2022/06/30 07:58:16;;;;;;;11.50;4.22;;;;;;;23.82;59.75;101216.28;5032729;28;20033;-58
2022/06/30 08:00:41;;;;;;;9.98;4.10;;;;;;;23.80;59.85;101221.59;5026467;28;20533;-58
2022/06/30 08:03:06;;;;;;;11.13;4.15;;;;;;;23.85;59.38;101215.38;5029690;28;20525;-59
2022/06/30 08:05:32;;;;;;;9.88;4.15;;;;;;;23.91;59.70;101215.25;5022671;28;20030;-57
2022/06/30 08:07:58;;;;;;;8.68;3.53;;;;;;;23.98;59.71;101216.84;5023725;28;20029;-58
2022/06/30 08:10:23;;;;;;;10.23;3.63;;;;;;;24.05;59.04;101219.28;5028876;28;20044;-59
2022/06/30 08:12:48;;;;;;;6.55;3.10;;;;;;;24.14;57.18;101212.09;5032274;28;20029;-59
2022/06/30 08:15:14;;;;;;;8.45;3.42;;;;;;;24.15;58.62;101205.97;5026626;28;20041;-59
2022/06/30 08:17:39;;;;;;;7.43;3.08;;;;;;;24.16;57.06;101205.06;5024404;28;20045;-59
2022/06/30 08:20:05;;;;;;;8.77;2.97;;;;;;;24.18;56.96;101198.00;5025795;28;20060;-59
2022/06/30 08:22:31;;;;;;;9.40;3.25;;;;;;;24.23;57.16;101197.00;5028714;28;20029;-60
2022/06/30 08:24:58;;;;;;;10.30;3.47;;;;;;;24.31;57.20;101202.06;5025358;28;20025;-59
2022/06/30 08:27:24;;;;;;;7.80;3.22;;;;;;;24.35;57.00;101206.38;5024778;28;20446;-59
2022/06/30 08:29:50;;;;;;;8.00;3.10;;;;;;;24.38;58.11;101200.19;5028789;28;20025;-56
2022/06/30 08:32:15;;;;;;;7.55;3.00;;;;;;;24.49;58.27;101206.91;5026073;28;20036;-58
2022/06/30 08:34:41;;;;;;;4.65;2.78;;;;;;;24.63;57.66;101203.94;5028885;28;20025;-58
2022/06/30 08:37:08;;;;;;;9.75;3.13;;;;;;;24.58;56.96;101204.06;5029387;28;20490;-57
2022/06/30 08:42:20;;;;;;;8.18;3.58;;;;;;;24.74;56.74;101201.06;5029570;28;20037;-59
2022/06/30 08:47:30;;;;;;;5.60;2.72;;;;;;;24.82;56.12;101201.75;5023138;28;20326;-59
2022/06/30 08:49:56;;;;;;;8.73;3.40;;;;;;;24.81;54.90;101207.88;5021353;28;20026;-58
2022/06/30 08:52:22;;;;;;;6.38;2.90;;;;;;;24.83;56.04;101204.31;5028337;28;20290;-58
2022/06/30 08:54:51;;;;;;;9.55;2.88;;;;;;;24.90;56.29;101207.66;5026239;28;20041;-59
2022/06/30 08:57:17;;;;;;;11.27;3.10;;;;;;;24.88;55.23;101206.84;5027943;28;20091;-58
2022/06/30 08:59:42;;;;;;;8.65;3.00;;;;;;;24.92;55.05;101202.34;5026973;28;20033;-59
2022/06/30 09:02:09;;;;;;;7.28;2.53;;;;;;;24.96;55.04;101202.25;5025780;28;20075;-58
2022/06/30 09:04:34;;;;;;;7.10;2.72;;;;;;;25.14;56.10;101199.16;5026198;28;20167;-57
2022/06/30 09:07:00;;;;;;;7.75;2.67;;;;;;;25.16;54.99;101209.63;5024162;28;20033;-59
2022/06/30 09:09:25;;;;;;;8.60;2.72;;;;;;;25.26;55.56;101212.88;5027770;28;20132;-59
2022/06/30 09:11:56;;;;;;;5.65;2.70;;;;;;;25.34;55.09;101213.53;5029874;28;20390;-57
2022/06/30 09:14:42;;;;;;;37.13;4.60;;;;;;;25.31;54.93;101206.59;5023165;28;20025;-58
2022/06/30 09:17:15;;;;;;;11.73;3.00;;;;;;;25.24;56.01;101212.03;5019772;28;20052;-57
2022/06/30 09:19:59;;;;;;;5.47;2.30;;;;;;;25.32;55.09;101217.97;5020721;28;20022;-56
2022/06/30 09:22:30;;;;;;;4.75;2.10;;;;;;;25.23;54.76;101213.81;5023159;28;20064;-58
2022/06/30 09:25:01;;;;;;;6.40;2.60;;;;;;;25.23;54.17;101210.31;5020810;28;20041;-58
2022/06/30 09:27:29;;;;;;;7.65;2.30;;;;;;;25.25;53.84;101219.06;5022247;28;20030;-54
2022/06/30 09:30:12;;;;;;;8.33;2.67;;;;;;;25.30;54.37;101217.13;5029858;28;20029;-57
2022/06/30 09:32:44;;;;;;;7.47;2.47;;;;;;;25.24;54.27;101220.84;5011976;28;20034;-57
2022/06/30 09:35:10;;;;;;;5.00;2.33;;;;;;;25.25;54.96;101219.06;5020607;28;20120;-57
2022/06/30 09:37:37;;;;;;;7.25;2.20;;;;;;;25.34;54.54;101216.16;5025462;28;20467;-54
2022/06/30 09:40:03;;;;;;;13.93;2.50;;;;;;;25.40;54.93;101221.25;5019657;28;20057;-58
2022/06/30 09:42:43;;;;;;;6.45;2.10;;;;;;;25.49;54.20;101220.16;5025296;28;20117;-56
2022/06/30 09:45:10;;;;;;;8.00;2.00;;;;;;;25.48;53.66;101227.19;5024500;28;20060;-55
2022/06/30 09:47:36;;;;;;;9.55;2.38;;;;;;;25.45;53.46;101219.34;5022751;28;20067;-54
2022/06/30 09:50:07;;;;;;;11.52;2.83;;;;;;;25.52;54.31;101226.19;5023432;28;20038;-57
2022/06/30 09:52:33;;;;;;;5.45;2.50;;;;;;;25.50;53.18;101221.88;5024035;28;21532;-58
2022/06/30 09:54:59;;;;;;;8.45;2.35;;;;;;;25.54;53.60;101213.84;5033604;28;20056;-58
2022/06/30 09:57:44;;;;;;;7.35;2.28;;;;;;;25.71;52.95;101221.25;5025255;28;20033;-58
2022/06/30 10:00:15;;;;;;;7.18;2.30;;;;;;;25.71;52.05;101226.50;5028304;28;20034;-57
2022/06/30 10:02:46;;;;;;;6.43;2.40;;;;;;;25.85;52.19;101223.53;5029245;28;20044;-57
2022/06/30 10:05:13;;;;;;;6.63;2.05;;;;;;;26.04;51.08;101224.69;5032531;28;20033;-58
2022/06/30 10:07:39;;;;;;;6.07;1.98;;;;;;;26.12;52.41;101235.84;5023765;28;20024;-56
2022/06/30 10:10:08;;;;;;;7.05;2.00;;;;;;;26.01;50.92;101235.31;5032831;28;20532;-57
2022/06/30 10:12:34;;;;;;;4.78;1.95;;;;;;;26.00;50.12;101232.72;5031028;28;20049;-53
2022/06/30 10:15:00;;;;;;;6.72;1.88;;;;;;;25.99;50.84;101231.00;5033336;28;20083;-57
2022/06/30 10:17:34;;;;;;;5.85;1.73;;;;;;;26.04;52.15;101229.97;5026908;28;20041;-56
2022/06/30 10:19:59;;;;;;;5.85;1.80;;;;;;;26.03;50.88;101241.44;5024824;28;20053;-55
2022/06/30 10:22:28;;;;;;;6.88;2.30;;;;;;;25.98;50.93;101238.06;5029406;28;20057;-49
2022/06/30 10:24:54;;;;;;;;;;;;;;;26.14;51.71;101238.44;5025786;28;20100;-46
2022/06/30 10:27:21;;;;;;;8.15;2.10;;;;;;;26.02;51.79;101234.41;5022631;28;19959;-49
2022/06/30 10:29:53;;;;;;;5.20;2.25;;;;;;;26.25;51.58;101236.34;5026489;28;20029;-49
2022/06/30 10:32:27;;;;;;;6.03;2.10;;;;;;;26.37;50.73;101217.50;5027332;28;20025;-45
2022/06/30 10:35:14;;;;;;;6.72;1.95;;;;;;;26.65;50.60;101206.09;5022209;28;20505;-47
2022/06/30 10:37:47;;;;;;;7.88;2.13;;;;;;;26.87;50.16;101201.81;5026808;28;20080;-47
2022/06/30 10:40:29;;;;;;;4.68;1.88;;;;;;;27.06;50.04;101211.75;5029778;28;20029;-47
2022/06/30 10:42:58;;;;;;;9.38;2.53;;;;;;;27.00;49.71;101218.09;5027005;28;20041;-48
2022/06/30 10:45:26;;;;;;;6.85;2.50;;;;;;;26.82;49.00;101216.94;5026645;28;20020;-47
2022/06/30 10:48:02;;;;;;;6.95;2.45;;;;;;;26.88;50.34;101229.06;5028227;28;20037;-47
2022/06/30 10:50:31;;;;;;;6.47;2.13;;;;;;;26.84;49.28;101223.03;5029500;28;20029;-46
2022/06/30 10:52:57;;;;;;;5.80;2.22;;;;;;;26.86;49.27;101220.34;5027371;28;20497;-46
2022/06/30 10:55:22;;;;;;;4.00;1.80;;;;;;;26.89;48.41;101209.69;5023844;28;20033;-49
2022/06/30 10:58:04;;;;;;;6.05;2.03;;;;;;;27.14;49.15;101199.16;5023682;28;20461;-48
2022/06/30 11:00:43;;;;;;;7.60;2.10;;;;;;;27.30;49.33;101207.38;5015309;28;20068;-49
2022/06/30 11:03:08;;;;;;;10.85;2.20;;;;;;;27.39;48.23;101207.06;5020417;28;20083;-49
2022/06/30 11:05:50;;;;;;;7.95;2.22;;;;;;;27.34;48.14;101193.16;5022413;28;20046;-47
2022/06/30 11:08:58;;;;;;;8.70;2.03;;;;;;;27.21;48.83;101200.66;5017049;28;20034;-46
2022/06/30 11:11:22;;;;;;;5.60;1.80;;;;;;;26.85;48.75;101202.78;5022454;28;20049;-47
2022/06/30 11:14:00;;;;;;;5.97;2.10;;;;;;;26.78;49.51;101212.69;5026027;28;20033;-48
2022/06/30 11:16:26;;;;;;;6.43;2.53;;;;;;;26.46;48.06;101211.13;5018730;28;20034;-46
2022/06/30 11:18:51;;;;;;;4.90;1.80;;;;;;;26.33;49.89;101215.91;5024248;28;20032;-49
2022/06/30 11:21:17;;;;;;;6.38;1.90;;;;;;;26.29;51.00;101219.53;5027382;28;20037;-49
2022/06/30 11:23:47;;;;;;;5.70;2.10;;;;;;;26.19;49.92;101223.34;5021012;28;20029;-46
2022/06/30 11:28:59;;;;;;;5.47;1.67;;;;;;;26.22;50.13;101210.09;5023404;28;20095;-47
2022/06/30 11:31:36;;;;;;;4.40;2.28;;;;;;;26.27;50.94;101204.66;5024831;28;20029;-48
2022/06/30 11:34:04;;;;;;;4.18;1.85;;;;;;;26.13;50.64;101199.81;5026138;28;20030;-46
2022/06/30 11:36:30;;;;;;;;;;;;;;;26.31;50.46;101199.25;5020147;28;20025;-47
2022/06/30 11:39:03;;;;;;;5.45;2.20;;;;;;;26.12;51.55;101203.38;5026464;28;19916;-46